createdAt,value
2019-04-07T00:00:01.387Z,100.00
2019-04-07T00:05:11.170Z,100.00
2019-04-07T00:10:01.735Z,100.00
2019-04-07T00:15:01.059Z,100.00
2019-04-07T00:20:01.559Z,100.00
2019-04-07T00:25:01.052Z,100.00
2019-04-07T00:30:01.938Z,100.00
2019-04-07T00:35:01.040Z,100.00
2019-04-07T00:40:02.224Z,100.00
2019-04-07T00:45:02.158Z,100.00
2019-04-07T00:50:01.465Z,100.00
2019-04-07T00:55:01.468Z,100.00
2019-04-07T01:00:01.668Z,100.00
2019-04-07T01:05:01.703Z,100.00
2019-04-07T01:10:01.055Z,100.00
2019-04-07T01:15:01.407Z,100.00
2019-04-07T01:20:01.126Z,100.00
2019-04-07T01:25:01.132Z,100.00
2019-04-07T01:30:02.004Z,100.00
2019-04-07T01:35:01.301Z,100.00
2019-04-07T01:40:01.533Z,100.00
2019-04-07T01:45:01.483Z,100.00
2019-04-07T01:50:01.862Z,100.00
2019-04-07T01:55:01.069Z,100.00
2019-04-07T02:00:01.831Z,100.00
2019-04-07T02:05:01.084Z,100.00
2019-04-07T02:10:02.474Z,100.00
2019-04-07T02:15:02.285Z,100.00
2019-04-07T02:20:01.349Z,100.00
2019-04-07T02:25:01.794Z,100.00
2019-04-07T02:30:01.115Z,100.00
2019-04-07T02:35:01.530Z,100.00
2019-04-07T03:20:01.077Z,100.00
2019-04-07T03:25:01.098Z,100.00
2019-04-07T03:30:01.158Z,100.00
2019-04-07T03:35:03.123Z,100.00
2019-04-07T03:40:02.465Z,100.00
2019-04-07T03:45:01.142Z,100.00
2019-04-07T03:50:01.663Z,100.00
2019-04-07T03:55:01.381Z,100.00
2019-04-07T04:00:02.229Z,100.00
2019-04-07T04:05:01.067Z,100.00
2019-04-07T04:10:01.282Z,100.00
2019-04-07T04:15:01.719Z,100.00
2019-04-07T04:20:01.109Z,100.00
2019-04-07T04:25:01.221Z,100.00
2019-04-07T04:30:01.077Z,100.00
2019-04-07T04:35:01.429Z,100.00
2019-04-07T04:40:01.548Z,100.00
2019-04-07T04:45:02.319Z,100.00
2019-04-07T04:50:02.178Z,100.00
2019-04-07T04:55:02.003Z,100.00
2019-04-07T05:00:02.048Z,100.00
2019-04-07T05:05:02.418Z,100.00
2019-04-07T05:10:01.276Z,100.00
2019-04-07T05:15:01.719Z,100.00
2019-04-07T05:20:01.206Z,100.00
2019-04-07T05:25:02.227Z,100.00
2019-04-07T05:30:01.254Z,100.00
2019-04-07T05:35:02.317Z,100.00
2019-04-07T05:40:02.944Z,100.00
2019-04-07T05:45:01.330Z,100.00
2019-04-07T05:50:03.831Z,100.00
2019-04-07T05:55:01.472Z,100.00
2019-04-07T06:00:01.369Z,100.00
2019-04-07T06:05:01.222Z,100.00
2019-04-07T06:10:02.390Z,100.00
2019-04-07T06:15:01.891Z,100.00
2019-04-07T06:20:01.491Z,100.00
2019-04-07T06:25:02.695Z,100.00
2019-04-07T06:30:01.067Z,100.00
2019-04-07T06:35:01.843Z,100.00
2019-04-07T06:40:01.167Z,100.00
2019-04-07T06:45:01.612Z,100.00
2019-04-07T06:50:01.833Z,100.00
2019-04-07T06:55:01.149Z,100.00
2019-04-07T07:00:02.320Z,100.00
2019-04-07T07:05:01.715Z,100.00
2019-04-07T07:10:01.137Z,100.00
2019-04-07T07:15:03.301Z,100.00
2019-04-07T07:20:02.580Z,100.00
2019-04-07T07:25:01.500Z,100.00
2019-04-07T07:30:01.257Z,100.00
2019-04-07T07:35:01.227Z,100.00
2019-04-07T07:40:01.890Z,100.00
2019-04-07T07:45:02.575Z,100.00
2019-04-07T07:50:04.886Z,100.00
2019-04-07T07:55:03.030Z,100.00
2019-04-07T08:00:05.125Z,100.00
2019-04-07T08:05:03.112Z,100.00
2019-04-07T08:10:01.629Z,100.00
2019-04-07T08:15:01.809Z,100.00
2019-04-07T08:20:02.381Z,100.00
2019-04-07T08:25:02.413Z,100.00
2019-04-07T08:30:02.632Z,100.00
2019-04-07T08:35:05.296Z,100.00
2019-04-07T08:40:07.142Z,100.00
2019-04-07T08:45:09.437Z,94.94
2019-04-07T08:50:01.925Z,90.78
2019-04-07T08:55:01.855Z,89.83
2019-04-07T09:00:01.183Z,88.73
2019-04-07T09:05:02.617Z,86.32
2019-04-07T09:10:01.189Z,93.88
2019-04-07T09:15:03.799Z,92.87
2019-04-07T09:20:06.148Z,91.20
2019-04-07T09:25:06.276Z,84.81
2019-04-07T09:30:01.161Z,90.89
2019-04-07T09:35:01.911Z,86.64
2019-04-07T09:40:03.186Z,86.55
2019-04-07T09:45:01.991Z,86.56
2019-04-07T09:50:01.638Z,91.75
2019-04-07T09:55:01.287Z,87.47
2019-04-07T10:00:01.907Z,87.27
2019-04-07T10:05:01.096Z,85.91
2019-04-07T10:10:09.974Z,80.93
2019-04-07T10:15:01.992Z,88.92
2019-04-07T10:20:01.112Z,84.00
2019-04-07T10:25:01.170Z,87.22
2019-04-07T10:30:01.144Z,81.58
2019-04-07T10:35:01.161Z,82.77
2019-04-07T10:40:02.679Z,78.34
2019-04-07T10:45:01.096Z,79.65
2019-04-07T10:50:06.898Z,75.25
2019-04-07T10:55:01.222Z,75.36
2019-04-07T11:00:01.385Z,78.06
2019-04-07T11:05:01.886Z,73.12
2019-04-07T11:10:01.225Z,74.92
2019-04-07T11:15:01.228Z,72.85
2019-04-07T11:20:01.519Z,70.65
2019-04-07T11:25:01.170Z,72.83
2019-04-07T11:30:01.065Z,74.02
2019-04-07T11:35:01.105Z,72.90
2019-04-07T11:40:02.188Z,70.58
2019-04-07T11:45:01.060Z,61.78
2019-04-07T11:50:01.439Z,64.50
2019-04-07T11:55:01.999Z,65.57
2019-04-07T12:00:02.348Z,60.60
2019-04-07T12:05:01.081Z,60.65
2019-04-07T12:10:01.111Z,59.89
2019-04-07T12:15:01.085Z,59.99
2019-04-07T12:20:01.372Z,56.11
2019-04-07T12:25:03.151Z,56.30
2019-04-07T12:30:01.249Z,58.38
2019-04-07T12:35:01.158Z,52.22
2019-04-07T12:40:01.230Z,55.59
2019-04-07T12:45:01.767Z,51.58
2019-04-07T12:50:02.045Z,55.34
2019-04-07T12:55:01.629Z,51.64
2019-04-07T13:00:01.624Z,53.09
2019-04-07T13:05:02.898Z,53.04
2019-04-07T13:10:03.360Z,55.45
2019-04-07T13:15:01.202Z,49.96
2019-04-07T13:20:02.309Z,50.81
2019-04-07T13:25:01.763Z,49.29
2019-04-07T13:30:01.097Z,52.67
2019-04-07T13:35:01.069Z,51.71
2019-04-07T13:40:01.522Z,51.95
2019-04-07T13:45:02.867Z,54.22
2019-04-07T13:50:02.483Z,56.23
2019-04-07T13:55:04.574Z,53.89
2019-04-07T14:00:01.650Z,54.32
2019-04-07T14:05:04.907Z,56.43
2019-04-07T14:10:03.973Z,58.86
2019-04-07T14:15:01.388Z,59.15
2019-04-07T14:20:01.447Z,57.21
2019-04-07T14:25:01.590Z,55.83
2019-04-07T14:30:01.480Z,56.91
2019-04-07T14:35:02.208Z,57.37
2019-04-07T14:40:01.911Z,56.80
2019-04-07T14:45:01.945Z,57.95
2019-04-07T14:50:02.015Z,56.93
2019-04-07T14:55:01.663Z,56.18
2019-04-07T15:00:02.071Z,55.49
2019-04-07T15:05:01.124Z,56.44
2019-04-07T15:10:01.100Z,57.35
2019-04-07T15:15:05.539Z,58.95
2019-04-07T15:20:01.487Z,61.62
2019-04-07T15:25:01.456Z,63.08
2019-04-07T15:30:02.244Z,62.81
2019-04-07T15:35:02.223Z,63.83
2019-04-07T15:40:03.661Z,66.39
2019-04-07T15:45:01.167Z,68.88
2019-04-07T15:50:01.135Z,69.98
2019-04-07T15:55:02.003Z,68.11
2019-04-07T16:00:03.107Z,67.73
2019-04-07T16:05:03.283Z,67.49
2019-04-07T16:10:01.915Z,67.12
2019-04-07T16:15:02.087Z,65.55
2019-04-07T16:20:01.740Z,66.03
2019-04-07T16:25:01.763Z,65.03
2019-04-07T16:30:01.246Z,65.50
2019-04-07T16:35:01.729Z,65.10
2019-04-07T16:40:06.283Z,65.16
2019-04-07T16:45:01.742Z,64.78
2019-04-07T16:50:01.218Z,67.12
2019-04-07T16:55:01.067Z,69.02
2019-04-07T17:00:01.589Z,75.18
2019-04-07T17:05:01.612Z,69.44
2019-04-07T17:10:03.506Z,73.77
2019-04-07T17:15:04.575Z,79.87
2019-04-07T17:20:01.287Z,82.69
2019-04-07T17:25:04.151Z,86.54
2019-04-07T17:30:01.761Z,96.94
2019-04-07T17:35:02.190Z,99.78
2019-04-07T17:40:01.473Z,100.00
2019-04-07T17:45:01.455Z,100.00
2019-04-07T17:50:01.061Z,100.00
2019-04-07T17:55:01.035Z,100.00
2019-04-07T18:00:01.821Z,100.00
2019-04-07T18:05:01.261Z,100.00
2019-04-07T18:10:01.500Z,100.00
2019-04-07T18:15:06.418Z,100.00
2019-04-07T18:20:04.378Z,100.00
2019-04-07T18:25:02.732Z,100.00
2019-04-07T18:30:02.012Z,100.00
2019-04-07T18:35:01.232Z,100.00
2019-04-07T18:40:02.485Z,100.00
2019-04-07T18:45:01.730Z,100.00
2019-04-07T18:50:07.135Z,100.00
2019-04-07T18:55:05.745Z,100.00
2019-04-07T19:00:03.011Z,100.00
2019-04-07T19:05:01.902Z,100.00
2019-04-07T19:10:08.690Z,100.00
2019-04-07T19:15:03.760Z,100.00
2019-04-07T19:20:01.120Z,100.00
2019-04-07T19:25:05.187Z,100.00
2019-04-07T19:30:01.749Z,100.00
2019-04-07T19:35:02.757Z,100.00
2019-04-07T19:40:02.787Z,100.00
2019-04-07T19:45:04.267Z,100.00
2019-04-07T19:50:01.077Z,100.00
2019-04-07T19:55:01.572Z,100.00
2019-04-07T20:00:01.074Z,100.00
2019-04-07T20:05:01.056Z,100.00
2019-04-07T20:10:01.304Z,100.00
2019-04-07T20:15:06.598Z,100.00
2019-04-07T20:20:02.193Z,100.00
2019-04-07T20:25:01.146Z,100.00
2019-04-07T20:30:01.069Z,100.00
2019-04-07T20:35:01.250Z,100.00
2019-04-07T20:40:03.538Z,100.00
2019-04-07T20:45:05.286Z,100.00
2019-04-07T20:50:01.202Z,100.00
2019-04-07T20:55:03.754Z,100.00
2019-04-07T21:00:03.699Z,100.00
2019-04-07T21:05:01.063Z,100.00
2019-04-07T21:10:05.202Z,100.00
2019-04-07T21:15:16.117Z,100.00
2019-04-07T21:20:02.010Z,100.00
2019-04-07T21:25:01.172Z,100.00
2019-04-07T21:30:01.124Z,100.00
2019-04-07T21:35:02.162Z,100.00
2019-04-07T21:40:04.352Z,100.00
2019-04-07T21:45:04.411Z,100.00
2019-04-07T21:50:05.386Z,100.00
2019-04-07T21:55:01.049Z,100.00
2019-04-07T22:00:01.090Z,100.00
2019-04-07T22:05:01.072Z,100.00
2019-04-07T22:10:01.135Z,100.00
2019-04-07T22:15:02.333Z,100.00
2019-04-07T22:20:01.051Z,100.00
2019-04-07T22:25:01.206Z,100.00
2019-04-07T22:30:04.545Z,100.00
2019-04-07T22:35:04.776Z,100.00
2019-04-07T22:40:02.217Z,100.00
2019-04-07T22:45:02.061Z,100.00
2019-04-07T22:50:03.948Z,100.00
2019-04-07T22:55:03.631Z,100.00
2019-04-07T23:00:02.386Z,100.00
2019-04-07T23:05:01.051Z,100.00
2019-04-07T23:10:01.094Z,100.00
2019-04-07T23:15:01.505Z,100.00
2019-04-07T23:20:01.065Z,100.00
2019-04-07T23:25:01.660Z,100.00
2019-04-07T23:30:01.234Z,100.00
2019-04-07T23:35:01.248Z,100.00
2019-04-07T23:40:01.039Z,100.00
2019-04-07T23:45:01.053Z,100.00
2019-04-07T23:50:01.056Z,100.00
2019-04-07T23:55:01.062Z,100.00
